Time;durP1;ratioP1;P1;durP2;ratioP2;P2;SDS_P1;SDS_P2;PMS_P1;PMS_P2;Temp;Humidity;BMP_temperature;BMP_pressure;BME280_temperature;BME280_humidity;BME280_pressure;Samples;Min_cycle;Max_cycle;Signal;HPM_P1;HPM_P2
2023/03/31 00:01:08;;;;;;;30.10;4.53;;;;;;;;;;5059733;28;20068;-81
2023/03/31 00:03:37;;;;;;;31.40;4.35;;;;;;;;;;5072572;28;20044;-81
2023/03/31 00:06:04;;;;;;;19.10;3.33;;;;;;;;;;5075033;28;20052;-81
2023/03/31 00:08:34;;;;;;;27.13;3.88;;;;;;;;;;5056933;28;20043;-81
2023/03/31 00:11:00;;;;;;;25.67;3.85;;;;;;;;;;5057351;28;20415;-81
2023/03/31 00:13:27;;;;;;;27.52;3.88;;;;;;;;;;5073550;28;20048;-81
2023/03/31 00:16:05;;;;;;;18.17;3.60;;;;;;;;;;5056832;28;20082;-81
2023/03/31 00:18:31;;;;;;;26.00;3.63;;;;;;;;;;5073457;28;20041;-81
2023/03/31 00:21:23;;;;;;;25.30;3.33;;;;;;;;;;5074908;28;20507;-81
2023/03/31 00:23:56;;;;;;;21.02;3.38;;;;;;;;;;5072933;28;20060;-81
2023/03/31 00:26:23;;;;;;;20.30;3.38;;;;;;;;;;5073645;28;20501;-81
2023/03/31 00:28:49;;;;;;;25.58;4.05;;;;;;;;;;5073141;28;20306;-81
2023/03/31 00:31:15;;;;;;;25.83;3.97;;;;;;;;;;5074916;28;20485;-81
2023/03/31 00:33:42;;;;;;;27.58;4.68;;;;;;;;;;5072946;28;20402;-81
2023/03/31 00:36:08;;;;;;;19.10;3.17;;;;;;;;;;5074733;28;20119;-81
2023/03/31 00:38:34;;;;;;;23.90;3.40;;;;;;;;;;5056798;28;20052;-81
2023/03/31 00:41:00;;;;;;;24.67;3.30;;;;;;;;;;5056125;28;20048;-81
2023/03/31 00:43:31;;;;;;;24.50;3.55;;;;;;;;;;5073128;28;20040;-81
2023/03/31 00:46:03;;;;;;;29.02;3.80;;;;;;;;;;5073885;28;20068;-81
2023/03/31 00:48:29;;;;;;;26.60;3.55;;;;;;;;;;5073282;28;20040;-81
2023/03/31 00:50:56;;;;;;;31.15;4.15;;;;;;;;;;5073695;28;20120;-81
2023/03/31 00:53:28;;;;;;;24.13;3.35;;;;;;;;;;5061752;28;20033;-81
2023/03/31 00:55:59;;;;;;;23.63;3.50;;;;;;;;;;5053780;28;20091;-81
2023/03/31 00:58:32;;;;;;;23.52;3.50;;;;;;;;;;5036360;28;20131;-81
2023/03/31 01:00:58;;;;;;;26.08;3.33;;;;;;;;;;5057689;28;20044;-81
2023/03/31 01:03:25;;;;;;;25.23;3.17;;;;;;;;;;5070344;28;20374;-81
2023/03/31 01:05:56;;;;;;;26.17;3.65;;;;;;;;;;5072315;28;20033;-81
2023/03/31 01:08:25;;;;;;;23.25;4.13;;;;;;;;;;5072631;28;20044;-81
2023/03/31 01:10:52;;;;;;;19.83;3.53;;;;;;;;;;5039725;28;20045;-81
2023/03/31 01:13:19;;;;;;;24.88;3.83;;;;;;;;;;5053957;28;20436;-81
2023/03/31 01:15:45;;;;;;;25.10;3.75;;;;;;;;;;5053406;28;20052;-81
2023/03/31 01:18:12;;;;;;;23.98;3.30;;;;;;;;;;5053891;28;20075;-81
2023/03/31 01:20:52;;;;;;;27.13;3.55;;;;;;;;;;5052383;28;20072;-81
2023/03/31 01:23:37;;;;;;;19.02;3.63;;;;;;;;;;5052604;28;20106;-81
2023/03/31 01:26:03;;;;;;;24.13;4.13;;;;;;;;;;5051654;28;20057;-81
2023/03/31 01:28:36;;;;;;;17.98;3.47;;;;;;;;;;5052548;28;20413;-81
2023/03/31 01:31:13;;;;;;;29.42;3.28;;;;;;;;;;5051705;28;20037;-81
2023/03/31 01:33:42;;;;;;;24.30;4.70;;;;;;;;;;5052668;28;20053;-81
2023/03/31 01:36:23;;;;;;;23.73;3.53;;;;;;;;;;5052206;28;20041;-81
2023/03/31 01:38:49;;;;;;;24.98;3.35;;;;;;;;;;5051962;28;20049;-81
2023/03/31 01:41:28;;;;;;;22.20;4.03;;;;;;;;;;5053568;28;20064;-81
2023/03/31 01:44:13;;;;;;;21.65;3.70;;;;;;;;;;5051625;28;20052;-81
2023/03/31 01:46:54;;;;;;;25.00;3.03;;;;;;;;;;5052530;28;20057;-81
2023/03/31 01:49:24;;;;;;;22.80;3.40;;;;;;;;;;5052839;28;20049;-81
2023/03/31 01:51:50;;;;;;;23.30;3.75;;;;;;;;;;5051900;28;20049;-81
2023/03/31 01:54:25;;;;;;;22.90;4.05;;;;;;;;;;5052076;28;20045;-81
2023/03/31 01:56:54;;;;;;;22.52;3.85;;;;;;;;;;5051681;28;20055;-81
2023/03/31 01:59:27;;;;;;;25.95;3.45;;;;;;;;;;5052125;28;20128;-81
2023/03/31 02:01:57;;;;;;;22.80;3.53;;;;;;;;;;5051231;28;20052;-81
2023/03/31 02:04:26;;;;;;;22.33;3.85;;;;;;;;;;5050687;28;20049;-81
2023/03/31 02:06:57;;;;;;;20.73;4.10;;;;;;;;;;5064600;28;20069;-81
2023/03/31 02:09:26;;;;;;;19.80;3.28;;;;;;;;;;5085264;28;20037;-81
2023/03/31 02:11:55;;;;;;;24.65;3.63;;;;;;;;;;5050160;28;20033;-81
2023/03/31 02:14:23;;;;;;;20.13;3.72;;;;;;;;;;5051356;28;20075;-81
2023/03/31 02:16:52;;;;;;;23.90;4.25;;;;;;;;;;5082170;28;20086;-81
2023/03/31 02:19:19;;;;;;;21.85;3.78;;;;;;;;;;5051265;28;20076;-81
2023/03/31 02:21:48;;;;;;;23.52;3.22;;;;;;;;;;5052587;28;20401;-81
2023/03/31 02:24:15;;;;;;;22.60;3.40;;;;;;;;;;5050856;28;20048;-81
2023/03/31 02:27:05;;;;;;;17.50;3.63;;;;;;;;;;5050928;28;20064;-81
2023/03/31 02:29:31;;;;;;;23.40;3.75;;;;;;;;;;5033272;28;20366;-81
2023/03/31 02:32:09;;;;;;;21.02;4.25;;;;;;;;;;5051864;28;20032;-81
2023/03/31 02:34:35;;;;;;;18.15;4.00;;;;;;;;;;5051292;28;20097;-81
2023/03/31 02:37:02;;;;;;;15.75;3.10;;;;;;;;;;5050660;28;20052;-81
2023/03/31 02:39:30;;;;;;;18.98;3.70;;;;;;;;;;5054782;28;20033;-81
2023/03/31 02:41:57;;;;;;;25.05;3.80;;;;;;;;;;5051785;28;20061;-81
2023/03/31 02:44:24;;;;;;;17.52;4.07;;;;;;;;;;5051082;28;20044;-81
2023/03/31 02:46:50;;;;;;;18.83;3.95;;;;;;;;;;5050830;28;20106;-81
2023/03/31 02:49:17;;;;;;;18.98;3.65;;;;;;;;;;5052622;28;20037;-81
2023/03/31 02:51:44;;;;;;;16.73;3.90;;;;;;;;;;5049097;28;20135;-81
2023/03/31 02:54:32;;;;;;;16.10;3.53;;;;;;;;;;5050643;28;20080;-81
2023/03/31 02:57:01;;;;;;;15.50;3.40;;;;;;;;;;5051441;28;20508;-81
2023/03/31 02:59:33;;;;;;;14.82;3.45;;;;;;;;;;5016478;28;20516;-81
2023/03/31 03:01:59;;;;;;;17.30;3.47;;;;;;;;;;5072542;28;20041;-81
2023/03/31 03:04:44;;;;;;;14.75;3.67;;;;;;;;;;5050701;28;20057;-81
2023/03/31 03:07:10;;;;;;;18.35;3.60;;;;;;;;;;5050582;28;20044;-81
2023/03/31 03:09:55;;;;;;;11.98;3.17;;;;;;;;;;5050790;28;20041;-82
2023/03/31 03:12:40;;;;;;;18.23;3.80;;;;;;;;;;5050614;28;20037;-81
2023/03/31 03:15:10;;;;;;;13.20;3.80;;;;;;;;;;5051720;28;20619;-81
2023/03/31 03:17:45;;;;;;;18.30;3.65;;;;;;;;;;5052061;28;20048;-82
2023/03/31 03:20:12;;;;;;;18.27;3.45;;;;;;;;;;5050632;28;20491;-82
2023/03/31 03:22:39;;;;;;;16.23;4.38;;;;;;;;;;5034501;28;20122;-82
2023/03/31 03:25:10;;;;;;;14.55;3.83;;;;;;;;;;5052856;28;20513;-81
2023/03/31 03:27:36;;;;;;;13.25;3.58;;;;;;;;;;5054499;28;20139;-81
2023/03/31 03:30:04;;;;;;;13.57;3.78;;;;;;;;;;5054438;28;20115;-81
2023/03/31 03:32:30;;;;;;;14.55;4.10;;;;;;;;;;5037892;28;20168;-81
2023/03/31 03:34:56;;;;;;;20.30;3.80;;;;;;;;;;5055685;28;20048;-81
2023/03/31 03:37:22;;;;;;;22.58;4.47;;;;;;;;;;5055316;28;20041;-81
2023/03/31 03:39:48;;;;;;;17.50;4.28;;;;;;;;;;5054621;28;20041;-81
2023/03/31 03:42:14;;;;;;;15.60;4.32;;;;;;;;;;5054046;28;20051;-81
2023/03/31 03:44:40;;;;;;;19.33;4.90;;;;;;;;;;5037770;28;20041;-81
2023/03/31 03:47:06;;;;;;;15.07;4.13;;;;;;;;;;5053920;28;20041;-81
2023/03/31 03:49:32;;;;;;;16.40;4.65;;;;;;;;;;5054187;28;20036;-81
2023/03/31 03:51:58;;;;;;;19.02;4.60;;;;;;;;;;5054193;28;20045;-81
2023/03/31 03:54:25;;;;;;;14.82;3.92;;;;;;;;;;5053972;28;20450;-81
2023/03/31 03:56:51;;;;;;;15.25;4.68;;;;;;;;;;5055498;28;20389;-81
2023/03/31 03:59:17;;;;;;;16.63;4.55;;;;;;;;;;5054226;28;20567;-81
2023/03/31 04:01:43;;;;;;;25.83;5.43;;;;;;;;;;5049516;28;20526;-81
2023/03/31 04:04:09;;;;;;;13.73;4.55;;;;;;;;;;5054471;28;20409;-81
2023/03/31 04:06:35;;;;;;;20.30;4.88;;;;;;;;;;5053617;28;20060;-81
2023/03/31 04:09:02;;;;;;;13.77;4.60;;;;;;;;;;5055459;28;20123;-81
2023/03/31 04:11:28;;;;;;;17.77;5.82;;;;;;;;;;5053716;28;20096;-81
2023/03/31 04:13:54;;;;;;;14.13;5.30;;;;;;;;;;5053923;28;20041;-81
2023/03/31 04:16:21;;;;;;;20.38;5.68;;;;;;;;;;5053387;28;20041;-82
2023/03/31 04:18:48;;;;;;;18.05;5.63;;;;;;;;;;5054927;28;20037;-81
2023/03/31 04:21:21;;;;;;;26.85;5.68;;;;;;;;;;5062076;28;20051;-81
2023/03/31 04:23:48;;;;;;;18.98;5.68;;;;;;;;;;5077305;28;20077;-81
2023/03/31 04:26:15;;;;;;;26.40;5.70;;;;;;;;;;5052947;28;20131;-81
2023/03/31 04:28:45;;;;;;;19.30;5.63;;;;;;;;;;5053425;28;20049;-81
2023/03/31 04:31:23;;;;;;;19.08;6.03;;;;;;;;;;5053282;28;20113;-82
2023/03/31 04:33:50;;;;;;;17.20;6.18;;;;;;;;;;5053369;28;20052;-81
2023/03/31 04:36:17;;;;;;;18.63;6.72;;;;;;;;;;5053068;28;20037;-81
2023/03/31 04:38:49;;;;;;;17.75;5.88;;;;;;;;;;5054527;28;20106;-81
2023/03/31 04:41:16;;;;;;;19.98;6.40;;;;;;;;;;5052989;28;20059;-81
2023/03/31 04:43:42;;;;;;;22.73;6.57;;;;;;;;;;5053381;28;20056;-81
2023/03/31 04:46:08;;;;;;;22.42;7.95;;;;;;;;;;5040479;28;20094;-81
2023/03/31 04:48:35;;;;;;;16.55;7.00;;;;;;;;;;5053683;28;20079;-81
2023/03/31 04:51:01;;;;;;;21.52;7.00;;;;;;;;;;5053380;28;20052;-81
2023/03/31 04:53:27;;;;;;;18.65;7.18;;;;;;;;;;5052648;28;20080;-81
2023/03/31 04:55:53;;;;;;;19.80;7.30;;;;;;;;;;5053347;28;20539;-81
2023/03/31 04:58:19;;;;;;;16.92;7.20;;;;;;;;;;5052572;28;20126;-81
2023/03/31 05:00:45;;;;;;;19.33;6.90;;;;;;;;;;5048709;28;20041;-81
2023/03/31 05:03:11;;;;;;;20.27;7.22;;;;;;;;;;5050906;28;20111;-81
2023/03/31 05:05:37;;;;;;;19.80;7.22;;;;;;;;;;5053040;28;20041;-81
2023/03/31 05:08:04;;;;;;;20.00;7.53;;;;;;;;;;5052737;28;20469;-81
2023/03/31 05:10:30;;;;;;;22.20;7.40;;;;;;;;;;5053412;28;20501;-81
2023/03/31 05:12:56;;;;;;;15.80;6.20;;;;;;;;;;5028991;28;20120;-81
2023/03/31 05:15:25;;;;;;;19.05;6.55;;;;;;;;;;5052718;28;20485;-81
2023/03/31 05:17:51;;;;;;;16.45;5.78;;;;;;;;;;5086221;28;20049;-81
2023/03/31 05:20:18;;;;;;;13.55;5.25;;;;;;;;;;5053772;28;20067;-81
2023/03/31 05:22:44;;;;;;;11.80;4.85;;;;;;;;;;5036089;28;20389;-81
2023/03/31 05:25:13;;;;;;;15.05;4.97;;;;;;;;;;5052534;28;20052;-82
2023/03/31 05:27:39;;;;;;;14.00;4.80;;;;;;;;;;5053573;28;20064;-81
2023/03/31 05:30:07;;;;;;;15.48;4.30;;;;;;;;;;5053742;28;20103;-81
2023/03/31 05:32:33;;;;;;;10.18;3.80;;;;;;;;;;5053355;28;20041;-81
2023/03/31 05:34:59;;;;;;;13.60;4.05;;;;;;;;;;5053771;28;20128;-81
2023/03/31 05:37:25;;;;;;;15.23;4.18;;;;;;;;;;5053139;28;20041;-81
2023/03/31 05:39:52;;;;;;;13.02;3.75;;;;;;;;;;5035896;28;20041;-81
2023/03/31 05:42:18;;;;;;;10.52;3.88;;;;;;;;;;5053244;28;20043;-81
2023/03/31 05:44:44;;;;;;;15.63;3.83;;;;;;;;;;5051925;28;20064;-81
2023/03/31 05:47:11;;;;;;;13.15;4.15;;;;;;;;;;5051683;28;20120;-81
2023/03/31 05:49:37;;;;;;;14.02;3.72;;;;;;;;;;5052800;28;20474;-81
2023/03/31 05:52:05;;;;;;;14.75;4.28;;;;;;;;;;5052224;28;20490;-81
2023/03/31 05:54:31;;;;;;;13.80;4.50;;;;;;;;;;5051843;28;20505;-81
2023/03/31 05:56:57;;;;;;;9.95;4.05;;;;;;;;;;5051818;28;20041;-81
2023/03/31 05:59:23;;;;;;;11.82;5.00;;;;;;;;;;5068194;28;20037;-81
2023/03/31 06:01:49;;;;;;;14.25;5.32;;;;;;;;;;5051722;28;20053;-81
2023/03/31 06:04:15;;;;;;;13.20;5.10;;;;;;;;;;5051615;28;20041;-81
2023/03/31 06:06:43;;;;;;;12.57;4.80;;;;;;;;;;5051148;28;20099;-81
2023/03/31 06:09:12;;;;;;;12.65;5.22;;;;;;;;;;5034958;28;20049;-81
2023/03/31 06:11:38;;;;;;;14.80;4.47;;;;;;;;;;5051494;28;20041;-81
2023/03/31 06:14:04;;;;;;;14.68;4.95;;;;;;;;;;5051562;28;20045;-81
2023/03/31 06:16:31;;;;;;;12.27;4.18;;;;;;;;;;5052609;28;20052;-81
2023/03/31 06:18:57;;;;;;;10.70;4.43;;;;;;;;;;5051432;28;20045;-81
2023/03/31 06:21:23;;;;;;;11.80;3.90;;;;;;;;;;5051013;28;20095;-81
2023/03/31 06:23:53;;;;;;;10.55;4.30;;;;;;;;;;5050228;28;20083;-81
2023/03/31 06:26:21;;;;;;;8.25;3.55;;;;;;;;;;5040198;28;20053;-80
2023/03/31 06:28:49;;;;;;;11.40;3.60;;;;;;;;;;5051200;28;20103;-81
2023/03/31 06:31:19;;;;;;;13.90;4.32;;;;;;;;;;5051386;28;20039;-81
2023/03/31 06:33:46;;;;;;;13.85;3.88;;;;;;;;;;5051279;28;20041;-81
2023/03/31 06:36:13;;;;;;;10.73;3.70;;;;;;;;;;5037871;28;20098;-81
2023/03/31 06:38:40;;;;;;;14.98;3.83;;;;;;;;;;5051124;28;20128;-81
2023/03/31 06:41:07;;;;;;;10.85;4.22;;;;;;;;;;5034524;28;20124;-82
2023/03/31 06:43:33;;;;;;;11.13;4.28;;;;;;;;;;5052034;28;20070;-82
2023/03/31 06:45:59;;;;;;;11.70;4.30;;;;;;;;;;5051106;28;20494;-82
2023/03/31 06:48:26;;;;;;;10.57;4.60;;;;;;;;;;5051898;28;20486;-81
2023/03/31 06:50:56;;;;;;;16.42;5.32;;;;;;;;;;5051155;28;20155;-81
2023/03/31 06:53:22;;;;;;;11.25;4.30;;;;;;;;;;5036955;28;20116;-81
2023/03/31 06:55:48;;;;;;;12.73;4.50;;;;;;;;;;5050895;28;20044;-81
2023/03/31 06:58:14;;;;;;;13.52;4.93;;;;;;;;;;5052540;28;20047;-81
2023/03/31 07:00:40;;;;;;;12.00;4.97;;;;;;;;;;5046480;28;20048;-82
2023/03/31 07:03:07;;;;;;;15.82;5.30;;;;;;;;;;5045735;28;20045;-82
2023/03/31 07:05:34;;;;;;;13.02;4.93;;;;;;;;;;5052137;28;20045;-81
2023/03/31 07:08:00;;;;;;;11.10;5.03;;;;;;;;;;5051193;28;20510;-82
2023/03/31 07:10:27;;;;;;;11.25;4.80;;;;;;;;;;5084648;28;20112;-81
2023/03/31 07:12:53;;;;;;;11.98;5.50;;;;;;;;;;5052531;28;20112;-81
2023/03/31 07:15:19;;;;;;;13.35;5.00;;;;;;;;;;5051050;28;20049;-81
2023/03/31 07:17:49;;;;;;;10.57;5.32;;;;;;;;;;5050918;28;20087;-82
2023/03/31 07:20:16;;;;;;;16.83;5.68;;;;;;;;;;5052535;28;20405;-81
2023/03/31 07:22:42;;;;;;;12.70;5.90;;;;;;;;;;5051235;28;20033;-81
2023/03/31 07:25:09;;;;;;;11.88;5.53;;;;;;;;;;5051059;28;20041;-81
2023/03/31 07:27:36;;;;;;;12.93;6.10;;;;;;;;;;5050802;28;20063;-81
2023/03/31 07:30:04;;;;;;;17.92;5.70;;;;;;;;;;5051110;28;20041;-81
2023/03/31 07:32:30;;;;;;;16.98;5.55;;;;;;;;;;5051253;28;20386;-82
2023/03/31 07:34:56;;;;;;;14.05;5.40;;;;;;;;;;5054851;28;20044;-81
2023/03/31 07:37:22;;;;;;;14.18;5.68;;;;;;;;;;5062423;28;20045;-82
2023/03/31 07:39:48;;;;;;;16.67;5.75;;;;;;;;;;5050882;28;20037;-82
2023/03/31 07:42:14;;;;;;;13.63;5.82;;;;;;;;;;5026822;28;20048;-81
2023/03/31 07:44:40;;;;;;;16.50;5.38;;;;;;;;;;5052008;28;20049;-81
2023/03/31 07:47:06;;;;;;;14.43;5.63;;;;;;;;;;5052555;28;20095;-81
2023/03/31 07:49:34;;;;;;;14.63;5.03;;;;;;;;;;5034377;28;20029;-81
2023/03/31 07:52:00;;;;;;;16.27;4.82;;;;;;;;;;5051309;28;20095;-81
2023/03/31 07:54:27;;;;;;;14.57;4.75;;;;;;;;;;5051622;28;20444;-81
2023/03/31 07:56:53;;;;;;;14.40;5.43;;;;;;;;;;5052107;28;20124;-81
2023/03/31 07:59:19;;;;;;;16.25;4.90;;;;;;;;;;5050862;28;20107;-82
2023/03/31 08:01:45;;;;;;;11.25;4.68;;;;;;;;;;5050953;28;20029;-81
2023/03/31 08:04:11;;;;;;;10.18;4.20;;;;;;;;;;5050875;28;20110;-82
2023/03/31 08:06:37;;;;;;;13.07;4.43;;;;;;;;;;5051970;28;20041;-81
2023/03/31 08:09:06;;;;;;;12.15;4.22;;;;;;;;;;5050959;28;20037;-81
2023/03/31 08:11:32;;;;;;;11.43;4.32;;;;;;;;;;5053150;28;20486;-81
2023/03/31 08:13:58;;;;;;;12.95;4.60;;;;;;;;;;5054190;28;20045;-81
2023/03/31 08:16:24;;;;;;;12.85;4.28;;;;;;;;;;5054824;28;20076;-82
2023/03/31 08:18:50;;;;;;;15.38;4.30;;;;;;;;;;5055402;28;20371;-82
2023/03/31 08:21:16;;;;;;;11.43;4.20;;;;;;;;;;5054514;28;20037;-81
2023/03/31 08:23:42;;;;;;;16.13;4.53;;;;;;;;;;5054375;28;20102;-81
2023/03/31 08:26:09;;;;;;;13.45;4.20;;;;;;;;;;5054302;28;20495;-81
2023/03/31 08:28:35;;;;;;;11.85;3.97;;;;;;;;;;5037344;28;20059;-81
2023/03/31 08:31:06;;;;;;;10.30;4.20;;;;;;;;;;5054330;28;20049;-81
2023/03/31 08:33:32;;;;;;;16.45;3.95;;;;;;;;;;5054704;28;20428;-81
2023/03/31 08:36:07;;;;;;;8.43;3.50;;;;;;;;;;5087491;28;20037;-81
2023/03/31 08:38:36;;;;;;;12.77;3.33;;;;;;;;;;5054642;28;20048;-82
2023/03/31 08:41:03;;;;;;;10.60;3.90;;;;;;;;;;5054188;28;20049;-81
2023/03/31 08:43:43;;;;;;;10.35;3.60;;;;;;;;;;5055822;28;20049;-81
2023/03/31 08:46:11;;;;;;;9.73;4.00;;;;;;;;;;5037447;28;20057;-81
2023/03/31 08:48:43;;;;;;;13.95;5.88;;;;;;;;;;5055875;28;20040;-81
2023/03/31 08:51:16;;;;;;;24.23;8.90;;;;;;;;;;5054560;28;20040;-81
2023/03/31 08:53:47;;;;;;;28.65;13.25;;;;;;;;;;5054725;28;20091;-82
2023/03/31 08:56:17;;;;;;;29.60;12.48;;;;;;;;;;5054145;28;20109;-81
2023/03/31 08:58:43;;;;;;;25.77;11.90;;;;;;;;;;5053924;28;20492;-81
2023/03/31 09:01:16;;;;;;;20.77;8.68;;;;;;;;;;5053734;28;20476;-81
2023/03/31 09:04:01;;;;;;;13.60;6.68;;;;;;;;;;5037363;28;20048;-81
2023/03/31 09:06:33;;;;;;;10.18;5.25;;;;;;;;;;5054716;28;20041;-81
2023/03/31 09:09:01;;;;;;;9.70;4.55;;;;;;;;;;5053832;28;20481;-81
2023/03/31 09:11:31;;;;;;;13.68;5.05;;;;;;;;;;5053541;28;20072;-81
2023/03/31 09:14:16;;;;;;;14.10;6.43;;;;;;;;;;5053431;28;20033;-81
2023/03/31 09:16:48;;;;;;;16.02;6.80;;;;;;;;;;5054721;28;20098;-81
2023/03/31 09:19:26;;;;;;;19.35;7.82;;;;;;;;;;5054600;28;20486;-81
2023/03/31 09:21:54;;;;;;;17.40;6.85;;;;;;;;;;5052809;28;20051;-81
2023/03/31 09:24:22;;;;;;;13.73;6.03;;;;;;;;;;5052775;28;20442;-81
2023/03/31 09:26:54;;;;;;;11.80;4.30;;;;;;;;;;5052716;28;20033;-81
2023/03/31 09:29:25;;;;;;;9.48;4.13;;;;;;;;;;5052860;28;20053;-81
2023/03/31 09:31:53;;;;;;;8.35;3.70;;;;;;;;;;5052743;28;20118;-81
2023/03/31 09:34:24;;;;;;;8.65;3.35;;;;;;;;;;5052957;28;20052;-82
2023/03/31 09:36:51;;;;;;;7.03;2.95;;;;;;;;;;5052548;28;20045;-81
2023/03/31 09:39:17;;;;;;;11.75;3.03;;;;;;;;;;5052880;28;20041;-82
2023/03/31 09:41:48;;;;;;;6.05;2.53;;;;;;;;;;5036688;28;20489;-81
2023/03/31 09:44:26;;;;;;;8.25;2.70;;;;;;;;;;5073291;28;20064;-82
2023/03/31 09:46:53;;;;;;;7.97;2.47;;;;;;;;;;5052634;28;20045;-81
2023/03/31 09:49:21;;;;;;;5.43;2.30;;;;;;;;;;5052976;28;20045;-81
2023/03/31 09:51:49;;;;;;;7.22;2.63;;;;;;;;;;5052870;28;20481;-81
2023/03/31 09:54:28;;;;;;;5.55;2.40;;;;;;;;;;5052996;28;20055;-81
2023/03/31 09:56:54;;;;;;;6.13;2.35;;;;;;;;;;5052462;28;20037;-82
2023/03/31 09:59:31;;;;;;;4.90;2.33;;;;;;;;;;5052793;28;20043;-82
2023/03/31 10:01:58;;;;;;;7.90;2.75;;;;;;;;;;5053737;28;20037;-81
2023/03/31 10:04:29;;;;;;;7.45;2.65;;;;;;;;;;5052171;28;20044;-82
2023/03/31 10:06:55;;;;;;;5.63;2.05;;;;;;;;;;5053344;28;20080;-82
2023/03/31 10:09:25;;;;;;;6.35;2.20;;;;;;;;;;5052114;28;20048;-81
2023/03/31 10:11:55;;;;;;;6.50;2.47;;;;;;;;;;5053443;28;20044;-81
2023/03/31 10:14:26;;;;;;;5.80;2.20;;;;;;;;;;5052378;28;20401;-82
2023/03/31 10:16:54;;;;;;;5.55;2.42;;;;;;;;;;5051897;28;20076;-81
2023/03/31 10:19:28;;;;;;;5.97;2.38;;;;;;;;;;5052222;28;20491;-81
2023/03/31 10:21:58;;;;;;;8.27;2.45;;;;;;;;;;5053153;28;20037;-82
2023/03/31 10:24:26;;;;;;;7.10;2.78;;;;;;;;;;5053025;28;20071;-81
2023/03/31 10:26:53;;;;;;;7.88;2.50;;;;;;;;;;5051786;28;20041;-81
2023/03/31 10:29:30;;;;;;;7.43;3.22;;;;;;;;;;5051409;28;20067;-81
2023/03/31 10:32:02;;;;;;;9.63;3.05;;;;;;;;;;5051694;28;20041;-81
2023/03/31 10:34:29;;;;;;;6.65;2.53;;;;;;;;;;5053155;28;20045;-82
2023/03/31 10:36:55;;;;;;;7.72;2.75;;;;;;;;;;5051460;28;20033;-82
2023/03/31 10:39:28;;;;;;;10.95;3.47;;;;;;;;;;5051722;28;20037;-82
2023/03/31 10:41:54;;;;;;;7.55;3.20;;;;;;;;;;5034757;28;20127;-81
2023/03/31 10:44:37;;;;;;;6.72;2.72;;;;;;;;;;5052903;28;20550;-81
2023/03/31 10:47:15;;;;;;;8.80;2.65;;;;;;;;;;5051121;28;20084;-81
2023/03/31 10:49:42;;;;;;;7.22;2.50;;;;;;;;;;5051522;28;20045;-81
2023/03/31 10:52:16;;;;;;;7.55;2.80;;;;;;;;;;5051201;28;20326;-81
2023/03/31 10:54:49;;;;;;;9.48;2.60;;;;;;;;;;5051279;28;20037;-81
2023/03/31 10:57:16;;;;;;;7.35;2.38;;;;;;;;;;5021070;28;20045;-81
2023/03/31 10:59:57;;;;;;;9.10;3.15;;;;;;;;;;5052692;28;20064;-81
2023/03/31 11:02:30;;;;;;;8.25;2.78;;;;;;;;;;5044785;28;20444;-81
2023/03/31 11:05:08;;;;;;;7.68;2.50;;;;;;;;;;5051193;28;20037;-81
2023/03/31 11:07:41;;;;;;;5.80;2.10;;;;;;;;;;5051077;28;20037;-81
2023/03/31 11:10:10;;;;;;;6.25;2.15;;;;;;;;;;5051244;28;20041;-82
2023/03/31 11:12:43;;;;;;;8.57;2.22;;;;;;;;;;5051309;28;20048;-81
2023/03/31 11:15:18;;;;;;;7.47;2.30;;;;;;;;;;5050986;28;20455;-81
2023/03/31 11:17:44;;;;;;;6.88;2.30;;;;;;;;;;5051242;28;20057;-81
2023/03/31 11:20:14;;;;;;;9.00;2.30;;;;;;;;;;5050805;28;20056;-81
2023/03/31 11:22:51;;;;;;;4.72;2.20;;;;;;;;;;5052375;28;20040;-81
2023/03/31 11:25:20;;;;;;;7.97;2.50;;;;;;;;;;5050805;28;20053;-81
2023/03/31 11:27:49;;;;;;;7.75;2.13;;;;;;;;;;5052108;28;20494;-81
2023/03/31 11:30:51;;;;;;;8.95;2.60;;;;;;;;;;5050687;28;20041;-81
2023/03/31 11:33:35;;;;;;;13.93;3.42;;;;;;;;;;5049899;28;20090;-81
2023/03/31 11:36:31;;;;;;;12.75;3.90;;;;;;;;;;5035401;28;20095;-81
2023/03/31 11:39:15;;;;;;;14.45;5.82;;;;;;;;;;5063685;28;20417;-81
2023/03/31 11:42:02;;;;;;;18.73;6.18;;;;;;;;;;5044116;28;20405;-81
2023/03/31 11:44:33;;;;;;;15.52;4.93;;;;;;;;;;5044421;28;20045;-82
2023/03/31 11:47:01;;;;;;;14.70;4.03;;;;;;;;;;5054921;28;20091;-81
2023/03/31 11:49:29;;;;;;;10.65;3.20;;;;;;;;;;5054729;28;20501;-81
2023/03/31 11:51:57;;;;;;;10.82;4.10;;;;;;;;;;5055986;28;20119;-81
2023/03/31 11:54:42;;;;;;;10.10;3.67;;;;;;;;;;5055810;28;20080;-81
2023/03/31 11:57:17;;;;;;;12.27;3.60;;;;;;;;;;5055678;28;20044;-81
2023/03/31 11:59:44;;;;;;;11.35;3.60;;;;;;;;;;5056474;28;20428;-82
2023/03/31 12:02:16;;;;;;;9.45;3.35;;;;;;;;;;5054578;28;20557;-82
2023/03/31 12:04:43;;;;;;;11.00;3.17;;;;;;;;;;5056203;28;20037;-82
2023/03/31 12:07:29;;;;;;;12.02;3.65;;;;;;;;;;5046782;28;20041;-81
2023/03/31 12:10:14;;;;;;;10.77;3.28;;;;;;;;;;5050883;28;20375;-81
2023/03/31 12:12:46;;;;;;;11.13;3.58;;;;;;;;;;5037738;28;20045;-81
2023/03/31 12:15:27;;;;;;;15.27;3.90;;;;;;;;;;5054071;28;20079;-81
2023/03/31 12:18:19;;;;;;;15.02;3.70;;;;;;;;;;5054246;28;20045;-81
2023/03/31 12:20:53;;;;;;;17.10;4.13;;;;;;;;;;5086906;28;20456;-82
2023/03/31 12:23:22;;;;;;;13.60;3.90;;;;;;;;;;5053771;28;20056;-81
2023/03/31 12:26:07;;;;;;;12.10;3.70;;;;;;;;;;5055410;28;20064;-81
2023/03/31 12:28:36;;;;;;;13.73;3.55;;;;;;;;;;5053367;28;20414;-81
2023/03/31 12:31:04;;;;;;;15.82;3.53;;;;;;;;;;5037486;28;20068;-81
2023/03/31 12:33:32;;;;;;;12.63;3.55;;;;;;;;;;5053752;28;20041;-81
2023/03/31 12:36:07;;;;;;;13.60;3.35;;;;;;;;;;5054593;28;20052;-81
2023/03/31 12:38:33;;;;;;;13.60;3.17;;;;;;;;;;5037313;28;20045;-81
2023/03/31 12:41:16;;;;;;;14.95;3.38;;;;;;;;;;5054442;28;20060;-81
2023/03/31 12:43:57;;;;;;;11.73;3.17;;;;;;;;;;5053833;28;20060;-81
2023/03/31 12:46:47;;;;;;;11.50;2.63;;;;;;;;;;5037002;28;20037;-81
2023/03/31 12:49:32;;;;;;;11.60;2.60;;;;;;;;;;5053150;28;20112;-81
2023/03/31 12:52:20;;;;;;;10.32;2.22;;;;;;;;;;5054272;28;20549;-81
2023/03/31 12:55:00;;;;;;;9.20;2.47;;;;;;;;;;5054978;28;20045;-81
2023/03/31 12:57:26;;;;;;;7.63;1.70;;;;;;;;;;5054050;28;20048;-81
2023/03/31 13:00:10;;;;;;;7.22;1.70;;;;;;;;;;5053903;28;20041;-81
2023/03/31 13:02:36;;;;;;;6.72;1.70;;;;;;;;;;5045494;28;20116;-81
2023/03/31 13:05:21;;;;;;;7.25;1.67;;;;;;;;;;5053488;28;20056;-81
2023/03/31 13:07:47;;;;;;;8.23;1.90;;;;;;;;;;5053892;28;20498;-81
2023/03/31 13:10:13;;;;;;;6.65;1.70;;;;;;;;;;5036756;28;20041;-81
2023/03/31 13:12:40;;;;;;;9.38;2.35;;;;;;;;;;5053163;28;20497;-81
2023/03/31 13:15:12;;;;;;;12.43;2.30;;;;;;;;;;5053333;28;20037;-81
2023/03/31 13:17:40;;;;;;;11.57;2.40;;;;;;;;;;5052994;28;20040;-81
2023/03/31 13:20:25;;;;;;;7.85;2.78;;;;;;;;;;5053096;28;20401;-81
2023/03/31 13:22:59;;;;;;;11.30;2.53;;;;;;;;;;5053352;28;20041;-81
2023/03/31 13:25:36;;;;;;;10.38;2.63;;;;;;;;;;5052862;28;20147;-81
2023/03/31 13:28:12;;;;;;;9.23;2.58;;;;;;;;;;5053089;28;20065;-81
2023/03/31 13:30:38;;;;;;;12.55;2.80;;;;;;;;;;5052830;28;20037;-81
2023/03/31 13:33:13;;;;;;;11.35;3.30;;;;;;;;;;5069489;28;20041;-81
2023/03/31 13:35:41;;;;;;;11.77;3.88;;;;;;;;;;5052768;28;20102;-81
2023/03/31 13:38:13;;;;;;;13.20;3.97;;;;;;;;;;5054091;28;20072;-81
2023/03/31 13:40:56;;;;;;;10.80;2.90;;;;;;;;;;5053120;28;20548;-81
2023/03/31 13:43:37;;;;;;;11.18;2.67;;;;;;;;;;5052699;28;20044;-81
2023/03/31 13:46:16;;;;;;;10.70;2.47;;;;;;;;;;5052668;28;20497;-81
2023/03/31 13:48:45;;;;;;;8.45;1.98;;;;;;;;;;5052143;28;20037;-81
2023/03/31 13:51:14;;;;;;;9.45;2.35;;;;;;;;;;5052555;28;20032;-82
2023/03/31 13:53:43;;;;;;;6.60;1.50;;;;;;;;;;5052012;28;20205;-81
2023/03/31 13:56:25;;;;;;;6.88;1.80;;;;;;;;;;5053533;28;20445;-81
2023/03/31 13:59:03;;;;;;;6.28;1.58;;;;;;;;;;5054116;28;20044;-82
2023/03/31 14:01:48;;;;;;;6.80;1.35;;;;;;;;;;5053314;28;20067;-81
2023/03/31 14:04:14;;;;;;;7.10;1.27;;;;;;;;;;5052325;28;20045;-82
2023/03/31 14:07:01;;;;;;;6.82;2.03;;;;;;;;;;5053070;28;20048;-81
2023/03/31 14:09:32;;;;;;;3.72;1.00;;;;;;;;;;5051401;28;20037;-81
2023/03/31 14:11:59;;;;;;;5.82;1.08;;;;;;;;;;5053466;28;20119;-81
2023/03/31 14:14:26;;;;;;;4.40;1.30;;;;;;;;;;5052972;28;20118;-81
2023/03/31 14:16:54;;;;;;;4.68;1.10;;;;;;;;;;5051911;28;20037;-81
2023/03/31 14:19:26;;;;;;;5.35;1.10;;;;;;;;;;5051547;28;20041;-82
2023/03/31 14:22:00;;;;;;;4.40;1.30;;;;;;;;;;5053021;28;20041;-81
2023/03/31 14:24:45;;;;;;;4.95;1.20;;;;;;;;;;5052493;28;20087;-81
2023/03/31 14:27:19;;;;;;;4.20;1.27;;;;;;;;;;5051554;28;20036;-81
2023/03/31 14:30:05;;;;;;;8.10;1.30;;;;;;;;;;5051448;28;20041;-82
2023/03/31 14:32:34;;;;;;;6.25;1.35;;;;;;;;;;5038823;28;20043;-81
2023/03/31 14:35:12;;;;;;;4.88;1.40;;;;;;;;;;5051832;28;20135;-81
2023/03/31 14:37:39;;;;;;;4.70;1.20;;;;;;;;;;5071301;28;20045;-82
2023/03/31 14:40:08;;;;;;;8.13;1.52;;;;;;;;;;5052611;28;20094;-81
2023/03/31 14:42:38;;;;;;;6.40;1.40;;;;;;;;;;5051010;28;20111;-82
2023/03/31 14:45:34;;;;;;;5.38;1.20;;;;;;;;;;5052667;28;20128;-81
2023/03/31 14:48:12;;;;;;;6.73;1.30;;;;;;;;;;5064880;28;20517;-81
2023/03/31 14:50:41;;;;;;;7.43;1.50;;;;;;;;;;5051206;28;20048;-81
2023/03/31 14:53:14;;;;;;;4.63;1.13;;;;;;;;;;5051198;28;20044;-81